GRU weather

Guarulhos - Governador André Franco Montoro International Airport
São Paulo, São Paulo, Brazil

Public forecast

Using degrees Celsius for public forecast. Weather courtesy of forecast.io.

Current aviation weather report (METAR) for Guarulhos - Governador André Franco Montoro International Airport

Retrieved 2019/10/21 03:00 UTC (31 minutes ago):

SBGR 210300Z 14005KT 9999 SCT015 OVC020 15/12 Q1017

Aviation forecast (TAF) for Guarulhos - Governador André Franco Montoro International Airport

Retrieved 2019-10-21 00:33 UTC (3 hours ago):

TAF SBGR 202226Z 2100/2206 15007KT 9999 BKN018TN14/2108Z TX22/2117Z TEMPO 2101/2105 SCT015 BECMG 2106/2108 08005KT PROB30 2108/2111 BKN008 BECMG 2112/2114 15005KT BKN030 PROB30 2117/2122 7000 SHRA BKN015 FEW040TCU BECMG 2123/2201 BKN010 RMK PGN